createdAt,value
2018-02-19T00:00:35.549Z,59.68
2018-02-19T00:03:03.515Z,59.53
2018-02-19T00:05:31.042Z,59.54
2018-02-19T00:07:58.557Z,59.59
2018-02-19T00:10:26.118Z,59.37
2018-02-19T00:12:53.662Z,59.42
2018-02-19T00:15:21.239Z,59.17
2018-02-19T00:17:48.758Z,58.87
2018-02-19T00:20:16.274Z,58.87
2018-02-19T00:22:43.866Z,58.74
2018-02-19T00:25:11.414Z,58.83
2018-02-19T00:27:39.103Z,59.06
2018-02-19T00:30:06.620Z,58.88
2018-02-19T00:32:34.138Z,59.07
2018-02-19T00:35:01.711Z,58.63
2018-02-19T00:37:29.226Z,58.48
2018-02-19T00:39:56.974Z,59.03
2018-02-19T00:42:24.486Z,59.31
2018-02-19T00:44:52.010Z,59.18
2018-02-19T00:47:19.549Z,59.35
2018-02-19T00:49:47.066Z,58.81
2018-02-19T00:52:14.672Z,58.53
2018-02-19T00:54:42.191Z,58.80
2018-02-19T00:57:09.708Z,58.99
2018-02-19T00:59:37.257Z,60.09
2018-02-19T01:02:04.774Z,59.34
2018-02-19T01:04:32.338Z,60.04
2018-02-19T01:06:59.865Z,59.93
2018-02-19T01:09:27.378Z,59.87
2018-02-19T01:11:54.920Z,60.02
2018-02-19T01:14:22.431Z,60.17
2018-02-19T01:16:50.466Z,60.03
2018-02-19T01:19:17.995Z,60.29
2018-02-19T01:21:45.567Z,59.78
2018-02-19T01:24:13.143Z,60.23
2018-02-19T01:26:40.659Z,58.91
2018-02-19T01:29:08.205Z,58.61
2018-02-19T01:31:35.723Z,58.91
2018-02-19T01:34:03.239Z,59.83
2018-02-19T01:36:30.787Z,59.33
2018-02-19T01:38:58.312Z,59.20
2018-02-19T01:41:25.871Z,59.29
2018-02-19T01:43:53.397Z,59.21
2018-02-19T01:46:20.921Z,60.25
2018-02-19T01:48:48.466Z,60.37
2018-02-19T01:51:15.982Z,60.86
2018-02-19T01:53:43.533Z,60.90
2018-02-19T01:56:11.055Z,60.23
2018-02-19T01:58:38.574Z,60.57
2018-02-19T02:01:06.109Z,60.85
2018-02-19T02:03:33.623Z,60.88
2018-02-19T02:06:01.317Z,61.95
2018-02-19T02:08:28.841Z,60.84
2018-02-19T02:10:56.362Z,60.80
2018-02-19T02:13:23.923Z,60.84
2018-02-19T02:15:51.441Z,60.71
2018-02-19T02:18:19.038Z,60.51
2018-02-19T02:20:46.550Z,60.84
2018-02-19T02:23:14.071Z,60.67
2018-02-19T02:25:41.614Z,60.51
2018-02-19T02:28:09.130Z,60.75
2018-02-19T02:30:37.887Z,60.18
2018-02-19T02:33:05.407Z,60.25
2018-02-19T02:35:32.921Z,61.07
2018-02-19T02:38:00.469Z,60.85
2018-02-19T02:40:27.998Z,60.79
2018-02-19T02:42:55.733Z,60.66
2018-02-19T02:45:23.249Z,60.82
2018-02-19T02:47:50.768Z,61.27
2018-02-19T02:50:18.305Z,61.25
2018-02-19T02:52:45.834Z,61.10
2018-02-19T02:55:13.555Z,60.46
2018-02-19T02:57:41.075Z,60.53
2018-02-19T03:00:08.595Z,60.10
2018-02-19T03:02:36.138Z,59.76
2018-02-19T03:05:03.657Z,59.16
2018-02-19T03:07:31.228Z,59.69
2018-02-19T03:09:58.745Z,59.46
2018-02-19T03:12:26.334Z,59.27
2018-02-19T03:14:53.869Z,59.06
2018-02-19T03:17:21.390Z,58.80
2018-02-19T03:19:49.122Z,59.91
2018-02-19T03:22:16.639Z,59.36
2018-02-19T03:24:44.149Z,58.88
2018-02-19T03:27:11.699Z,58.96
2018-02-19T03:29:39.215Z,58.73
2018-02-19T03:32:06.921Z,59.26
2018-02-19T03:34:34.486Z,58.81
2018-02-19T03:37:02.014Z,59.53
2018-02-19T03:39:29.554Z,59.39
2018-02-19T03:41:57.074Z,59.58
2018-02-19T03:44:24.646Z,59.00
2018-02-19T03:46:52.195Z,58.37
2018-02-19T03:49:19.712Z,58.63
2018-02-19T03:51:47.258Z,58.70
2018-02-19T03:54:14.785Z,58.45
2018-02-19T03:56:42.330Z,59.92
2018-02-19T03:59:09.850Z,59.59
2018-02-19T04:01:37.366Z,60.20
2018-02-19T04:04:04.897Z,59.77
2018-02-19T04:06:32.413Z,59.27
2018-02-19T04:08:59.957Z,59.16
2018-02-19T04:11:27.470Z,58.29
2018-02-19T04:13:54.991Z,58.20
2018-02-19T04:16:22.547Z,57.99
2018-02-19T04:18:50.059Z,58.09
2018-02-19T04:21:17.677Z,58.63
2018-02-19T04:23:45.198Z,58.38
2018-02-19T04:26:12.719Z,58.21
2018-02-19T04:28:40.258Z,58.41
2018-02-19T04:31:07.780Z,58.42
2018-02-19T04:33:35.488Z,58.41
2018-02-19T04:36:03.342Z,58.41
2018-02-19T04:38:30.854Z,58.73
2018-02-19T04:40:58.394Z,58.64
2018-02-19T04:43:25.910Z,59.75
2018-02-19T04:45:53.461Z,59.64
2018-02-19T04:48:20.978Z,59.20
2018-02-19T04:50:48.503Z,59.79
2018-02-19T04:53:16.066Z,59.51
2018-02-19T04:55:43.614Z,59.70
2018-02-19T04:58:11.400Z,60.09
2018-02-19T05:00:38.917Z,59.71
2018-02-19T05:03:06.449Z,58.75
2018-02-19T05:05:34.314Z,58.37
2018-02-19T05:08:01.829Z,58.71
2018-02-19T05:10:29.374Z,59.54
2018-02-19T05:12:56.913Z,59.93
2018-02-19T05:15:24.426Z,59.88
2018-02-19T05:17:51.959Z,59.71
2018-02-19T05:20:19.479Z,59.27
2018-02-19T05:22:47.037Z,58.70
2018-02-19T05:25:14.565Z,58.80
2018-02-19T05:27:42.079Z,58.55
2018-02-19T05:30:09.617Z,58.69
2018-02-19T05:32:37.141Z,58.28
2018-02-19T05:35:04.701Z,58.48
2018-02-19T05:37:32.220Z,58.59
2018-02-19T05:39:59.754Z,58.69
2018-02-19T05:42:27.298Z,57.73
2018-02-19T05:44:54.818Z,58.47
2018-02-19T05:47:22.573Z,58.95
2018-02-19T05:49:50.998Z,57.39
2018-02-19T05:52:18.518Z,56.91
2018-02-19T05:54:46.053Z,56.53
2018-02-19T05:57:13.569Z,56.15
2018-02-19T05:59:41.151Z,56.16
2018-02-19T06:02:08.667Z,56.23
2018-02-19T06:04:36.180Z,56.62
2018-02-19T06:07:03.726Z,55.10
2018-02-19T06:09:31.247Z,54.69
2018-02-19T06:11:58.995Z,54.78
2018-02-19T06:14:26.510Z,55.07
2018-02-19T06:16:54.540Z,54.92
2018-02-19T06:19:22.082Z,56.15
2018-02-19T06:21:49.600Z,55.88
2018-02-19T06:24:17.142Z,56.12
2018-02-19T06:26:44.662Z,56.29
2018-02-19T06:29:12.188Z,56.92
2018-02-19T06:31:39.739Z,55.96
2018-02-19T06:34:07.250Z,55.41
2018-02-19T06:36:34.998Z,55.42
2018-02-19T06:39:02.517Z,55.70
2018-02-19T06:41:30.472Z,55.76
2018-02-19T06:43:58.015Z,56.74
2018-02-19T06:46:25.529Z,56.13
2018-02-19T06:48:53.244Z,56.01
2018-02-19T06:51:20.775Z,57.09
2018-02-19T06:53:48.295Z,57.87
2018-02-19T06:56:15.841Z,57.19
2018-02-19T06:58:43.363Z,56.73
2018-02-19T07:01:11.309Z,56.17
2018-02-19T07:03:38.845Z,56.13
2018-02-19T07:06:06.368Z,55.98
2018-02-19T07:08:33.915Z,55.66
2018-02-19T07:11:01.437Z,55.52
2018-02-19T07:13:28.992Z,55.63
2018-02-19T07:15:56.513Z,55.40
2018-02-19T07:18:24.039Z,54.61
2018-02-19T07:20:51.582Z,55.21
2018-02-19T07:23:19.107Z,55.02
2018-02-19T07:25:46.895Z,55.98
2018-02-19T07:28:14.410Z,55.44
2018-02-19T07:30:41.927Z,56.00
2018-02-19T07:33:09.475Z,56.14
2018-02-19T07:35:36.993Z,55.73
2018-02-19T07:38:04.795Z,55.40
2018-02-19T07:40:32.312Z,55.24
2018-02-19T07:42:59.830Z,55.63
2018-02-19T07:45:27.389Z,55.24
2018-02-19T07:47:55.074Z,55.36
2018-02-19T07:50:22.641Z,55.10
2018-02-19T07:52:50.153Z,55.24
2018-02-19T07:55:17.778Z,55.46
2018-02-19T07:57:45.330Z,55.37
2018-02-19T08:00:12.846Z,55.68
2018-02-19T08:02:40.565Z,54.80
2018-02-19T08:05:08.083Z,54.27
2018-02-19T08:07:35.599Z,54.17
2018-02-19T08:10:03.138Z,54.19
2018-02-19T08:12:30.676Z,53.97
2018-02-19T08:14:58.388Z,52.37
2018-02-19T08:17:26.470Z,52.04
2018-02-19T08:19:54.806Z,51.96
2018-02-19T08:22:22.417Z,51.99
2018-02-19T08:24:49.934Z,51.70
2018-02-19T08:27:17.748Z,51.82
2018-02-19T08:29:45.279Z,52.29
2018-02-19T08:32:12.795Z,51.40
2018-02-19T08:34:40.333Z,51.71
2018-02-19T08:37:07.858Z,50.59
2018-02-19T08:39:35.432Z,50.41
2018-02-19T08:42:02.952Z,51.03
2018-02-19T08:44:30.478Z,51.34
2018-02-19T08:46:58.034Z,51.36
2018-02-19T08:49:25.618Z,52.09
2018-02-19T08:51:53.333Z,50.15
2018-02-19T08:54:20.862Z,49.51
2018-02-19T08:56:48.758Z,50.59
2018-02-19T08:59:16.331Z,50.66
2018-02-19T09:01:43.841Z,49.55
2018-02-19T09:04:11.414Z,49.31
2018-02-19T09:06:38.934Z,48.91
2018-02-19T09:09:06.450Z,48.26
2018-02-19T09:11:33.996Z,48.28
2018-02-19T09:14:01.510Z,47.49
2018-02-19T09:16:29.057Z,47.40
2018-02-19T09:18:56.578Z,46.53
2018-02-19T09:21:24.107Z,47.27
2018-02-19T09:23:51.669Z,47.17
2018-02-19T09:26:19.674Z,47.15
2018-02-19T09:28:47.426Z,46.23
2018-02-19T09:31:14.943Z,46.20
2018-02-19T09:33:42.462Z,46.71
2018-02-19T09:36:10.040Z,46.44
2018-02-19T09:38:37.554Z,45.10
2018-02-19T09:41:05.212Z,45.82
2018-02-19T09:43:32.734Z,45.03
2018-02-19T09:46:00.258Z,44.59
2018-02-19T09:48:27.803Z,46.68
2018-02-19T09:50:55.330Z,46.92
2018-02-19T09:53:22.882Z,47.93
2018-02-19T09:55:50.704Z,47.66
2018-02-19T09:58:18.240Z,48.65
2018-02-19T10:00:45.810Z,48.75
2018-02-19T10:03:13.330Z,48.67
2018-02-19T10:05:41.369Z,49.01
2018-02-19T10:08:09.307Z,48.80
2018-02-19T10:10:36.823Z,48.25
2018-02-19T10:13:04.373Z,47.74
2018-02-19T10:15:31.892Z,47.71
2018-02-19T10:17:59.626Z,47.41
2018-02-19T10:20:27.149Z,47.47
2018-02-19T10:22:54.667Z,47.10
2018-02-19T10:25:22.212Z,46.11
2018-02-19T10:27:49.726Z,45.61
2018-02-19T10:30:17.328Z,45.49
2018-02-19T10:32:44.891Z,45.89
2018-02-19T10:35:12.397Z,45.67
2018-02-19T10:37:39.946Z,47.46
2018-02-19T10:40:07.459Z,47.06
2018-02-19T10:42:35.217Z,46.44
2018-02-19T10:45:02.737Z,46.32
2018-02-19T10:47:30.256Z,46.47
2018-02-19T10:49:57.802Z,46.79
2018-02-19T10:52:25.348Z,46.72
2018-02-19T10:54:52.901Z,47.38
2018-02-19T10:57:20.427Z,47.01
2018-02-19T10:59:47.937Z,47.42
2018-02-19T11:02:15.509Z,47.41
2018-02-19T11:04:43.042Z,45.98
2018-02-19T11:07:10.809Z,45.62
2018-02-19T11:09:38.322Z,45.27
2018-02-19T11:12:05.849Z,44.22
2018-02-19T11:14:33.406Z,45.29
2018-02-19T11:17:01.041Z,45.22
2018-02-19T11:19:28.822Z,45.43
2018-02-19T11:21:56.346Z,45.67
2018-02-19T11:24:23.869Z,44.66
2018-02-19T11:26:51.414Z,44.68
2018-02-19T11:29:18.947Z,45.19
2018-02-19T11:31:46.609Z,45.55
2018-02-19T11:34:14.124Z,45.33
2018-02-19T11:36:41.638Z,45.51
2018-02-19T11:39:09.177Z,45.10
2018-02-19T11:41:36.693Z,45.79
2018-02-19T11:44:04.401Z,45.53
2018-02-19T11:46:31.920Z,45.75
2018-02-19T11:48:59.439Z,46.11
2018-02-19T11:51:27.006Z,45.95
2018-02-19T11:53:54.522Z,45.97
2018-02-19T11:56:22.205Z,45.45
2018-02-19T11:58:51.151Z,45.79
2018-02-19T12:01:18.641Z,45.97
2018-02-19T12:03:46.284Z,45.52
2018-02-19T12:06:13.835Z,45.30
2018-02-19T12:08:41.760Z,45.15
2018-02-19T12:11:09.944Z,44.28
2018-02-19T12:13:37.825Z,44.27
2018-02-19T12:16:06.936Z,44.42
2018-02-19T12:18:35.556Z,44.95
2018-02-19T12:21:03.389Z,45.18
2018-02-19T12:23:31.077Z,45.20
2018-02-19T12:25:58.986Z,46.27
2018-02-19T12:28:26.841Z,45.58
2018-02-19T12:30:54.712Z,44.96
2018-02-19T12:33:22.425Z,44.55
2018-02-19T12:35:51.056Z,44.81
2018-02-19T12:38:18.784Z,44.65
2018-02-19T12:40:46.687Z,44.35
2018-02-19T12:43:14.808Z,44.91
2018-02-19T12:45:43.033Z,45.02
2018-02-19T12:48:10.590Z,44.52
2018-02-19T12:50:38.443Z,45.28
2018-02-19T12:53:06.225Z,44.79
2018-02-19T12:55:34.738Z,45.21
2018-02-19T12:58:02.673Z,45.15
2018-02-19T13:00:30.536Z,44.95
2018-02-19T13:02:58.376Z,45.49
2018-02-19T13:05:26.291Z,45.89
2018-02-19T13:07:54.242Z,46.42
2018-02-19T13:10:22.008Z,44.85
2018-02-19T13:12:49.769Z,45.91
2018-02-19T13:15:17.636Z,45.34
2018-02-19T13:17:45.401Z,46.33
2018-02-19T13:20:13.680Z,46.41
2018-02-19T13:22:41.853Z,45.48
2018-02-19T13:25:09.821Z,46.48
2018-02-19T13:27:37.686Z,46.52
2018-02-19T13:30:05.660Z,47.10
2018-02-19T13:32:33.628Z,46.92
2018-02-19T13:35:02.515Z,47.37
2018-02-19T13:37:30.360Z,46.98
2018-02-19T13:39:58.247Z,47.42
2018-02-19T13:42:25.912Z,46.65
2018-02-19T13:44:53.776Z,46.52
2018-02-19T13:47:22.770Z,47.27
2018-02-19T13:49:50.636Z,47.60
2018-02-19T13:52:18.502Z,46.63
2018-02-19T13:54:46.367Z,47.44
2018-02-19T13:57:14.643Z,46.83
2018-02-19T13:59:42.616Z,46.64
2018-02-19T14:02:11.198Z,47.32
2018-02-19T14:04:39.063Z,46.68
2018-02-19T14:07:06.835Z,47.17
2018-02-19T14:09:35.390Z,48.04
2018-02-19T14:12:03.069Z,47.46
2018-02-19T14:14:30.938Z,47.54
2018-02-19T14:16:58.725Z,48.29
2018-02-19T14:19:26.672Z,48.62
2018-02-19T14:21:54.640Z,48.16
2018-02-19T14:24:24.355Z,48.69
2018-02-19T14:26:52.321Z,48.71
2018-02-19T14:29:19.925Z,48.57
2018-02-19T14:31:47.847Z,49.26
2018-02-19T14:34:15.707Z,49.64
2018-02-19T14:36:43.887Z,48.85
2018-02-19T14:39:11.754Z,48.93
2018-02-19T14:41:39.518Z,48.97
2018-02-19T14:44:07.161Z,48.30
2018-02-19T14:46:34.842Z,48.29
2018-02-19T14:49:02.793Z,48.65
2018-02-19T14:51:30.723Z,48.11
2018-02-19T14:53:59.363Z,48.52
2018-02-19T14:56:27.255Z,49.72
2018-02-19T14:58:54.883Z,49.38
2018-02-19T15:01:22.760Z,49.05
2018-02-19T15:03:50.378Z,48.98
2018-02-19T15:06:18.258Z,48.74
2018-02-19T15:08:45.957Z,48.21
2018-02-19T15:11:13.720Z,48.72
2018-02-19T15:13:41.681Z,49.98
2018-02-19T15:16:09.547Z,49.63
2018-02-19T15:18:37.618Z,49.14
2018-02-19T15:21:05.690Z,49.54
2018-02-19T15:23:33.864Z,50.28
2018-02-19T15:26:02.140Z,50.44
2018-02-19T15:28:30.724Z,49.96
2018-02-19T15:30:58.548Z,49.97
2018-02-19T15:33:27.582Z,50.79
2018-02-19T15:35:55.653Z,51.41
2018-02-19T15:38:23.623Z,52.29
2018-02-19T15:40:52.946Z,51.80
2018-02-19T15:43:20.890Z,51.69
2018-02-19T15:45:48.859Z,51.51
2018-02-19T15:48:16.624Z,51.40
2018-02-19T15:50:48.586Z,51.52
2018-02-19T15:53:16.453Z,51.76
2018-02-19T15:55:44.422Z,52.02
2018-02-19T15:58:12.455Z,52.59
2018-02-19T16:00:40.363Z,52.57
2018-02-19T16:03:08.289Z,52.61
2018-02-19T16:05:36.196Z,52.28
2018-02-19T16:08:04.784Z,52.92
2018-02-19T16:10:32.645Z,52.58
2018-02-19T16:13:01.032Z,52.88
2018-02-19T16:15:28.788Z,53.29
2018-02-19T16:17:56.713Z,53.55
2018-02-19T16:20:25.031Z,53.87
2018-02-19T16:22:52.796Z,54.38
2018-02-19T16:25:20.635Z,54.38
2018-02-19T16:27:49.653Z,54.61
2018-02-19T16:30:17.832Z,54.10
2018-02-19T16:32:45.798Z,55.12
2018-02-19T16:35:13.850Z,54.76
2018-02-19T16:37:42.352Z,54.29
2018-02-19T16:40:10.320Z,54.50
2018-02-19T16:42:38.185Z,54.66
2018-02-19T16:45:06.154Z,55.01
2018-02-19T16:47:34.022Z,54.40
2018-02-19T16:50:03.221Z,54.48
2018-02-19T16:52:31.187Z,54.75
2018-02-19T16:55:00.527Z,54.51
2018-02-19T16:57:28.763Z,54.98
2018-02-19T16:59:56.619Z,54.69
2018-02-19T17:02:25.524Z,54.43
2018-02-19T17:04:53.449Z,54.38
2018-02-19T17:07:21.355Z,54.51
2018-02-19T17:09:49.328Z,54.70
2018-02-19T17:12:17.152Z,54.43
2018-02-19T17:14:45.017Z,54.67
2018-02-19T17:17:12.986Z,55.11
2018-02-19T17:19:40.893Z,55.17
2018-02-19T17:22:08.866Z,55.25
2018-02-19T17:24:36.600Z,55.57
2018-02-19T17:27:04.380Z,55.07
2018-02-19T17:29:32.257Z,55.39
2018-02-19T17:32:00.031Z,55.35
2018-02-19T17:34:27.989Z,55.36
2018-02-19T17:36:55.865Z,55.32
2018-02-19T17:39:23.840Z,55.56
2018-02-19T17:41:51.901Z,55.26
2018-02-19T17:44:19.763Z,55.18
2018-02-19T17:46:48.410Z,55.45
2018-02-19T17:49:16.314Z,55.13
2018-02-19T17:51:44.387Z,55.31
2018-02-19T17:54:12.356Z,55.61
2018-02-19T17:56:40.200Z,55.28
2018-02-19T17:59:08.199Z,55.39
2018-02-19T18:01:36.536Z,55.49
2018-02-19T18:04:04.438Z,55.36
2018-02-19T18:06:32.469Z,55.33
2018-02-19T18:09:00.271Z,56.02
2018-02-19T18:11:28.240Z,55.98
2018-02-19T18:13:56.106Z,56.35
2018-02-19T18:16:23.937Z,55.72
2018-02-19T18:18:51.803Z,55.70
2018-02-19T18:21:19.809Z,55.98
2018-02-19T18:23:47.989Z,55.63
2018-02-19T18:26:16.668Z,55.13
2018-02-19T18:28:45.192Z,55.30
2018-02-19T18:31:13.122Z,55.67
2018-02-19T18:33:41.190Z,55.65
2018-02-19T18:36:09.507Z,55.68
2018-02-19T18:38:37.536Z,55.42
2018-02-19T18:41:05.813Z,55.67
2018-02-19T18:43:33.782Z,55.55
2018-02-19T18:46:01.649Z,54.93
2018-02-19T18:48:29.514Z,55.73
2018-02-19T18:50:57.708Z,56.17
2018-02-19T18:53:26.034Z,56.40
2018-02-19T18:55:53.933Z,56.62
2018-02-19T18:58:21.903Z,57.27
2018-02-19T19:00:49.769Z,57.02
2018-02-19T19:03:17.700Z,56.79
2018-02-19T19:05:46.629Z,56.80
2018-02-19T19:08:26.389Z,56.55
2018-02-19T19:10:56.099Z,56.80
2018-02-19T19:13:25.847Z,56.97
2018-02-19T19:15:55.248Z,56.86
2018-02-19T19:18:23.165Z,57.07
2018-02-19T19:20:50.931Z,57.18
2018-02-19T19:23:20.740Z,57.68
2018-02-19T19:25:48.812Z,57.34
2018-02-19T19:28:17.295Z,57.84
2018-02-19T19:30:45.265Z,58.69
2018-02-19T19:33:13.251Z,57.59
2018-02-19T19:35:41.587Z,57.77
2018-02-19T19:38:09.480Z,57.74
2018-02-19T19:40:37.421Z,57.79
2018-02-19T19:43:05.312Z,57.35
2018-02-19T19:45:33.131Z,57.79
2018-02-19T19:48:01.148Z,57.81
2018-02-19T19:50:31.061Z,57.60
2018-02-19T19:52:59.405Z,58.50
2018-02-19T19:55:28.024Z,58.03
2018-02-19T19:57:56.020Z,57.74
2018-02-19T20:00:23.982Z,57.91
2018-02-19T20:02:52.954Z,58.30
2018-02-19T20:05:21.026Z,58.35
2018-02-19T20:07:49.300Z,58.27
2018-02-19T20:10:17.785Z,58.10
2018-02-19T20:12:45.750Z,58.64
2018-02-19T20:15:13.821Z,59.00
2018-02-19T20:17:42.097Z,58.44
2018-02-19T20:20:11.286Z,58.47
2018-02-19T20:22:39.370Z,59.00
2018-02-19T20:25:08.220Z,58.79
2018-02-19T20:27:36.132Z,58.90
2018-02-19T20:30:04.094Z,58.84
2018-02-19T20:32:32.881Z,59.25
2018-02-19T20:35:00.748Z,58.82
2018-02-19T20:37:30.134Z,58.64
2018-02-19T20:39:59.042Z,58.84
2018-02-19T20:42:27.217Z,59.14
2018-02-19T20:44:55.086Z,58.81
2018-02-19T20:47:23.154Z,58.63
2018-02-19T20:49:51.223Z,59.13
2018-02-19T20:52:19.090Z,58.78
2018-02-19T20:54:47.264Z,58.51
2018-02-19T20:57:15.208Z,58.48
2018-02-19T20:59:43.100Z,58.59
2018-02-19T21:02:11.069Z,59.20
2018-02-19T21:04:39.041Z,59.06
2018-02-19T21:07:07.340Z,58.79
2018-02-19T21:09:35.165Z,59.92
2018-02-19T21:12:03.013Z,59.24
2018-02-19T21:14:30.916Z,58.89
2018-02-19T21:16:58.845Z,58.90
2018-02-19T21:19:27.055Z,58.83
2018-02-19T21:21:54.923Z,58.75
2018-02-19T21:24:23.266Z,58.70
2018-02-19T21:26:51.268Z,58.33
2018-02-19T21:29:19.343Z,58.63
2018-02-19T21:31:47.527Z,58.31
2018-02-19T21:34:15.382Z,58.43
2018-02-19T21:36:43.453Z,58.27
2018-02-19T21:39:12.242Z,58.15
2018-02-19T21:41:40.108Z,58.68
2018-02-19T21:44:08.281Z,58.85
2018-02-19T21:46:36.119Z,58.52
2018-02-19T21:49:04.014Z,58.42
2018-02-19T21:51:32.494Z,58.38
2018-02-19T21:54:00.364Z,58.38
2018-02-19T21:56:28.408Z,58.38
2018-02-19T21:58:56.508Z,58.36
2018-02-19T22:01:24.441Z,58.18
2018-02-19T22:03:52.639Z,58.01
2018-02-19T22:06:20.616Z,58.08
2018-02-19T22:08:51.028Z,57.87
2018-02-19T22:11:20.141Z,58.10
2018-02-19T22:13:48.374Z,58.16
2018-02-19T22:16:17.918Z,58.25
2018-02-19T22:18:46.194Z,58.97
2018-02-19T22:21:15.289Z,58.65
2018-02-19T22:23:43.771Z,58.50
2018-02-19T22:26:11.739Z,59.02
2018-02-19T22:28:40.554Z,59.10
2018-02-19T22:31:08.410Z,59.11
2018-02-19T22:33:36.432Z,59.32
2018-02-19T22:36:04.229Z,58.80
2018-02-19T22:38:32.608Z,58.54
2018-02-19T22:41:00.578Z,58.23
2018-02-19T22:43:28.955Z,58.45
2018-02-19T22:45:57.154Z,58.54
2018-02-19T22:48:24.996Z,58.75
2018-02-19T22:50:52.863Z,58.72
2018-02-19T22:53:20.624Z,58.67
2018-02-19T22:55:48.183Z,58.29
2018-02-19T22:58:16.328Z,58.42
2018-02-19T23:00:44.430Z,58.45
2018-02-19T23:03:12.091Z,58.37
2018-02-19T23:05:39.830Z,58.22
2018-02-19T23:08:07.621Z,58.17
2018-02-19T23:10:35.705Z,57.85
2018-02-19T23:13:03.558Z,57.80
2018-02-19T23:15:31.311Z,57.99
2018-02-19T23:17:59.404Z,57.97
2018-02-19T23:20:27.059Z,57.82
2018-02-19T23:22:55.290Z,57.80
2018-02-19T23:25:23.097Z,58.08
2018-02-19T23:27:50.850Z,58.04
2018-02-19T23:30:18.724Z,58.14
2018-02-19T23:32:46.353Z,58.12
2018-02-19T23:35:14.049Z,57.99
2018-02-19T23:37:41.801Z,58.11
2018-02-19T23:40:09.374Z,57.76
2018-02-19T23:42:37.019Z,57.98
2018-02-19T23:45:04.794Z,57.87
2018-02-19T23:47:32.552Z,57.82
2018-02-19T23:50:00.188Z,58.16
2018-02-19T23:52:27.810Z,58.31
2018-02-19T23:54:55.398Z,58.32
2018-02-19T23:57:23.064Z,58.40
2018-02-19T23:59:50.762Z,58.38
